sensor_id;sensor_type;location;lat;lon;timestamp;P1;durP1;ratioP1;P2;durP2;ratioP2
35298;SDS011;21415;48.054;16.646;2023-01-01T00:01:22;23.10;;;13.57;;
35298;SDS011;21415;48.054;16.646;2023-01-01T00:03:51;18.52;;;12.68;;
35298;SDS011;21415;48.054;16.646;2023-01-01T00:06:18;17.88;;;11.52;;
35298;SDS011;21415;48.054;16.646;2023-01-01T00:08:44;16.95;;;12.43;;
35298;SDS011;21415;48.054;16.646;2023-01-01T00:11:10;21.55;;;12.43;;
35298;SDS011;21415;48.054;16.646;2023-01-01T00:13:37;19.15;;;12.85;;
35298;SDS011;21415;48.054;16.646;2023-01-01T00:16:05;18.60;;;12.07;;
35298;SDS011;21415;48.054;16.646;2023-01-01T00:18:34;19.90;;;12.63;;
35298;SDS011;21415;48.054;16.646;2023-01-01T00:21:02;19.08;;;12.48;;
35298;SDS011;21415;48.054;16.646;2023-01-01T00:28:18;15.17;;;10.00;;
35298;SDS011;21415;48.054;16.646;2023-01-01T00:30:44;17.13;;;10.85;;
35298;SDS011;21415;48.054;16.646;2023-01-01T00:33:10;19.05;;;11.55;;
35298;SDS011;21415;48.054;16.646;2023-01-01T00:35:36;17.65;;;11.38;;
35298;SDS011;21415;48.054;16.646;2023-01-01T00:38:01;17.20;;;10.25;;
35298;SDS011;21415;48.054;16.646;2023-01-01T00:40:27;16.77;;;11.13;;
35298;SDS011;21415;48.054;16.646;2023-01-01T00:42:53;17.80;;;11.60;;
35298;SDS011;21415;48.054;16.646;2023-01-01T00:45:18;18.25;;;10.98;;
35298;SDS011;21415;48.054;16.646;2023-01-01T00:47:52;13.32;;;9.70;;
35298;SDS011;21415;48.054;16.646;2023-01-01T00:50:19;16.42;;;10.35;;
35298;SDS011;21415;48.054;16.646;2023-01-01T00:52:46;15.52;;;10.48;;
35298;SDS011;21415;48.054;16.646;2023-01-01T00:55:13;19.10;;;9.88;;
35298;SDS011;21415;48.054;16.646;2023-01-01T00:57:39;15.15;;;10.30;;
35298;SDS011;21415;48.054;16.646;2023-01-01T01:00:05;15.07;;;10.15;;
35298;SDS011;21415;48.054;16.646;2023-01-01T01:02:32;15.05;;;10.38;;
35298;SDS011;21415;48.054;16.646;2023-01-01T01:04:58;14.20;;;10.10;;
35298;SDS011;21415;48.054;16.646;2023-01-01T01:07:25;15.52;;;10.95;;
35298;SDS011;21415;48.054;16.646;2023-01-01T01:09:51;18.75;;;10.93;;
35298;SDS011;21415;48.054;16.646;2023-01-01T01:12:17;17.00;;;10.90;;
35298;SDS011;21415;48.054;16.646;2023-01-01T01:14:42;16.85;;;11.07;;
35298;SDS011;21415;48.054;16.646;2023-01-01T01:17:08;15.38;;;10.23;;
35298;SDS011;21415;48.054;16.646;2023-01-01T01:19:34;19.07;;;12.13;;
35298;SDS011;21415;48.054;16.646;2023-01-01T01:21:59;17.53;;;10.63;;
35298;SDS011;21415;48.054;16.646;2023-01-01T01:24:25;19.20;;;11.27;;
35298;SDS011;21415;48.054;16.646;2023-01-01T01:26:51;15.40;;;10.20;;
35298;SDS011;21415;48.054;16.646;2023-01-01T01:29:17;14.20;;;10.35;;
35298;SDS011;21415;48.054;16.646;2023-01-01T01:31:43;15.97;;;10.63;;
35298;SDS011;21415;48.054;16.646;2023-01-01T01:34:08;16.47;;;10.77;;
35298;SDS011;21415;48.054;16.646;2023-01-01T01:36:34;18.02;;;10.82;;
35298;SDS011;21415;48.054;16.646;2023-01-01T01:39:00;14.80;;;10.45;;
35298;SDS011;21415;48.054;16.646;2023-01-01T01:41:26;13.20;;;9.68;;
35298;SDS011;21415;48.054;16.646;2023-01-01T01:43:53;15.88;;;9.88;;
35298;SDS011;21415;48.054;16.646;2023-01-01T01:46:45;17.42;;;10.30;;
35298;SDS011;21415;48.054;16.646;2023-01-01T01:49:15;20.27;;;10.90;;
35298;SDS011;21415;48.054;16.646;2023-01-01T01:51:49;14.45;;;9.80;;
35298;SDS011;21415;48.054;16.646;2023-01-01T01:54:16;15.68;;;9.38;;
35298;SDS011;21415;48.054;16.646;2023-01-01T01:56:50;15.88;;;10.25;;
35298;SDS011;21415;48.054;16.646;2023-01-01T01:59:19;15.55;;;9.55;;
35298;SDS011;21415;48.054;16.646;2023-01-01T02:01:49;13.35;;;9.00;;
35298;SDS011;21415;48.054;16.646;2023-01-01T02:04:14;13.65;;;8.85;;
35298;SDS011;21415;48.054;16.646;2023-01-01T02:06:41;14.82;;;9.27;;
35298;SDS011;21415;48.054;16.646;2023-01-01T02:09:08;15.50;;;9.43;;
35298;SDS011;21415;48.054;16.646;2023-01-01T02:16:49;10.98;;;6.60;;
35298;SDS011;21415;48.054;16.646;2023-01-01T02:24:41;14.55;;;9.15;;
35298;SDS011;21415;48.054;16.646;2023-01-01T02:30:04;17.48;;;11.20;;
35298;SDS011;21415;48.054;16.646;2023-01-01T02:32:39;15.27;;;11.13;;
35298;SDS011;21415;48.054;16.646;2023-01-01T02:35:20;12.13;;;9.07;;
35298;SDS011;21415;48.054;16.646;2023-01-01T02:38:13;14.50;;;9.65;;
35298;SDS011;21415;48.054;16.646;2023-01-01T02:40:53;13.90;;;8.63;;
35298;SDS011;21415;48.054;16.646;2023-01-01T02:43:23;13.25;;;8.25;;
35298;SDS011;21415;48.054;16.646;2023-01-01T02:45:49;12.80;;;7.93;;
35298;SDS011;21415;48.054;16.646;2023-01-01T02:54:08;13.75;;;8.75;;
35298;SDS011;21415;48.054;16.646;2023-01-01T02:56:43;12.82;;;8.18;;
35298;SDS011;21415;48.054;16.646;2023-01-01T02:59:21;12.63;;;7.97;;
35298;SDS011;21415;48.054;16.646;2023-01-01T03:02:32;11.05;;;8.02;;
35298;SDS011;21415;48.054;16.646;2023-01-01T03:08:12;11.63;;;8.10;;
35298;SDS011;21415;48.054;16.646;2023-01-01T03:14:11;14.57;;;8.37;;
35298;SDS011;21415;48.054;16.646;2023-01-01T03:24:28;12.57;;;8.88;;
35298;SDS011;21415;48.054;16.646;2023-01-01T03:27:01;13.68;;;9.52;;
35298;SDS011;21415;48.054;16.646;2023-01-01T03:29:34;13.95;;;9.07;;
35298;SDS011;21415;48.054;16.646;2023-01-01T03:32:04;13.60;;;9.30;;
35298;SDS011;21415;48.054;16.646;2023-01-01T03:34:34;13.63;;;9.00;;
35298;SDS011;21415;48.054;16.646;2023-01-01T03:37:07;12.40;;;8.65;;
35298;SDS011;21415;48.054;16.646;2023-01-01T03:39:46;14.75;;;8.85;;
35298;SDS011;21415;48.054;16.646;2023-01-01T03:42:21;12.60;;;8.20;;
35298;SDS011;21415;48.054;16.646;2023-01-01T03:44:51;12.90;;;8.65;;
35298;SDS011;21415;48.054;16.646;2023-01-01T03:47:30;16.23;;;9.23;;
35298;SDS011;21415;48.054;16.646;2023-01-01T03:49:57;12.18;;;7.85;;
35298;SDS011;21415;48.054;16.646;2023-01-01T03:52:40;13.77;;;8.50;;
35298;SDS011;21415;48.054;16.646;2023-01-01T04:00:36;14.02;;;8.68;;
35298;SDS011;21415;48.054;16.646;2023-01-01T04:03:13;14.70;;;9.23;;
35298;SDS011;21415;48.054;16.646;2023-01-01T04:05:46;14.00;;;8.63;;
35298;SDS011;21415;48.054;16.646;2023-01-01T04:08:11;14.68;;;8.73;;
35298;SDS011;21415;48.054;16.646;2023-01-01T04:10:46;12.45;;;8.77;;
35298;SDS011;21415;48.054;16.646;2023-01-01T04:13:16;12.57;;;9.02;;
35298;SDS011;21415;48.054;16.646;2023-01-01T04:15:41;12.90;;;9.03;;
35298;SDS011;21415;48.054;16.646;2023-01-01T04:18:07;13.43;;;8.68;;
35298;SDS011;21415;48.054;16.646;2023-01-01T04:20:33;15.15;;;9.35;;
35298;SDS011;21415;48.054;16.646;2023-01-01T04:22:59;13.18;;;8.48;;
35298;SDS011;21415;48.054;16.646;2023-01-01T04:25:26;15.32;;;9.60;;
35298;SDS011;21415;48.054;16.646;2023-01-01T04:30:18;12.55;;;8.88;;
35298;SDS011;21415;48.054;16.646;2023-01-01T04:32:44;14.00;;;9.55;;
35298;SDS011;21415;48.054;16.646;2023-01-01T04:35:10;18.00;;;11.10;;
35298;SDS011;21415;48.054;16.646;2023-01-01T04:37:38;13.77;;;9.18;;
35298;SDS011;21415;48.054;16.646;2023-01-01T04:40:05;13.38;;;9.18;;
35298;SDS011;21415;48.054;16.646;2023-01-01T04:42:31;14.02;;;9.25;;
35298;SDS011;21415;48.054;16.646;2023-01-01T04:44:57;11.33;;;8.17;;
35298;SDS011;21415;48.054;16.646;2023-01-01T04:47:23;17.83;;;10.18;;
35298;SDS011;21415;48.054;16.646;2023-01-01T04:49:51;22.75;;;14.95;;
35298;SDS011;21415;48.054;16.646;2023-01-01T04:52:17;17.88;;;12.43;;
35298;SDS011;21415;48.054;16.646;2023-01-01T04:54:43;17.60;;;12.18;;
35298;SDS011;21415;48.054;16.646;2023-01-01T04:57:09;16.13;;;10.77;;
35298;SDS011;21415;48.054;16.646;2023-01-01T04:59:35;16.02;;;10.82;;
35298;SDS011;21415;48.054;16.646;2023-01-01T05:02:00;15.35;;;9.95;;
35298;SDS011;21415;48.054;16.646;2023-01-01T05:04:26;12.95;;;8.90;;
35298;SDS011;21415;48.054;16.646;2023-01-01T05:06:52;16.95;;;10.45;;
35298;SDS011;21415;48.054;16.646;2023-01-01T05:09:18;16.50;;;9.90;;
35298;SDS011;21415;48.054;16.646;2023-01-01T05:11:44;15.77;;;10.05;;
35298;SDS011;21415;48.054;16.646;2023-01-01T05:14:09;14.02;;;9.40;;
35298;SDS011;21415;48.054;16.646;2023-01-01T05:16:36;15.98;;;9.80;;
35298;SDS011;21415;48.054;16.646;2023-01-01T05:19:03;15.35;;;10.00;;
35298;SDS011;21415;48.054;16.646;2023-01-01T05:21:31;15.35;;;9.23;;
35298;SDS011;21415;48.054;16.646;2023-01-01T05:23:59;15.82;;;9.05;;
35298;SDS011;21415;48.054;16.646;2023-01-01T05:26:30;16.17;;;10.05;;
35298;SDS011;21415;48.054;16.646;2023-01-01T05:28:57;15.93;;;10.18;;
35298;SDS011;21415;48.054;16.646;2023-01-01T05:31:25;14.32;;;9.70;;
35298;SDS011;21415;48.054;16.646;2023-01-01T05:33:53;16.92;;;11.00;;
35298;SDS011;21415;48.054;16.646;2023-01-01T05:36:20;18.58;;;11.65;;
35298;SDS011;21415;48.054;16.646;2023-01-01T05:38:48;18.27;;;11.65;;
35298;SDS011;21415;48.054;16.646;2023-01-01T05:41:14;17.33;;;11.27;;
35298;SDS011;21415;48.054;16.646;2023-01-01T05:43:41;17.23;;;11.43;;
35298;SDS011;21415;48.054;16.646;2023-01-01T05:46:09;16.70;;;10.55;;
35298;SDS011;21415;48.054;16.646;2023-01-01T05:48:38;18.65;;;10.60;;
35298;SDS011;21415;48.054;16.646;2023-01-01T05:51:14;15.50;;;10.95;;
35298;SDS011;21415;48.054;16.646;2023-01-01T05:53:41;16.75;;;10.50;;
35298;SDS011;21415;48.054;16.646;2023-01-01T05:56:09;14.32;;;9.88;;
35298;SDS011;21415;48.054;16.646;2023-01-01T05:58:36;15.40;;;10.85;;
35298;SDS011;21415;48.054;16.646;2023-01-01T06:01:05;16.42;;;11.77;;
35298;SDS011;21415;48.054;16.646;2023-01-01T06:03:32;18.55;;;12.43;;
35298;SDS011;21415;48.054;16.646;2023-01-01T06:06:01;20.67;;;12.93;;
35298;SDS011;21415;48.054;16.646;2023-01-01T06:08:28;20.20;;;13.75;;
35298;SDS011;21415;48.054;16.646;2023-01-01T06:10:58;20.07;;;12.93;;
35298;SDS011;21415;48.054;16.646;2023-01-01T06:13:25;19.27;;;13.35;;
35298;SDS011;21415;48.054;16.646;2023-01-01T06:15:57;21.13;;;14.93;;
35298;SDS011;21415;48.054;16.646;2023-01-01T06:18:24;20.05;;;14.00;;
35298;SDS011;21415;48.054;16.646;2023-01-01T06:20:51;19.80;;;12.77;;
35298;SDS011;21415;48.054;16.646;2023-01-01T06:23:17;18.57;;;12.60;;
35298;SDS011;21415;48.054;16.646;2023-01-01T06:25:43;18.77;;;12.40;;
35298;SDS011;21415;48.054;16.646;2023-01-01T06:28:09;19.30;;;11.95;;
35298;SDS011;21415;48.054;16.646;2023-01-01T06:30:35;15.27;;;11.27;;
35298;SDS011;21415;48.054;16.646;2023-01-01T06:33:01;16.48;;;11.65;;
35298;SDS011;21415;48.054;16.646;2023-01-01T06:35:28;17.15;;;12.63;;
35298;SDS011;21415;48.054;16.646;2023-01-01T06:37:53;16.60;;;12.25;;
35298;SDS011;21415;48.054;16.646;2023-01-01T06:40:19;12.77;;;11.20;;
35298;SDS011;21415;48.054;16.646;2023-01-01T06:42:45;15.10;;;12.15;;
35298;SDS011;21415;48.054;16.646;2023-01-01T06:45:11;13.45;;;11.27;;
35298;SDS011;21415;48.054;16.646;2023-01-01T06:47:37;14.55;;;11.57;;
35298;SDS011;21415;48.054;16.646;2023-01-01T06:50:04;13.85;;;11.43;;
35298;SDS011;21415;48.054;16.646;2023-01-01T06:52:31;13.25;;;11.75;;
35298;SDS011;21415;48.054;16.646;2023-01-01T06:54:56;14.00;;;12.40;;
35298;SDS011;21415;48.054;16.646;2023-01-01T06:57:22;14.10;;;12.30;;
35298;SDS011;21415;48.054;16.646;2023-01-01T06:59:49;16.80;;;13.13;;
35298;SDS011;21415;48.054;16.646;2023-01-01T07:02:14;16.40;;;13.87;;
35298;SDS011;21415;48.054;16.646;2023-01-01T07:04:40;18.02;;;14.73;;
35298;SDS011;21415;48.054;16.646;2023-01-01T07:07:06;16.00;;;13.10;;
35298;SDS011;21415;48.054;16.646;2023-01-01T07:09:32;20.20;;;13.60;;
35298;SDS011;21415;48.054;16.646;2023-01-01T07:11:57;17.27;;;13.90;;
35298;SDS011;21415;48.054;16.646;2023-01-01T07:14:23;17.65;;;13.07;;
35298;SDS011;21415;48.054;16.646;2023-01-01T07:16:49;17.63;;;12.97;;
35298;SDS011;21415;48.054;16.646;2023-01-01T07:19:15;14.98;;;12.70;;
35298;SDS011;21415;48.054;16.646;2023-01-01T07:21:43;20.10;;;13.32;;
35298;SDS011;21415;48.054;16.646;2023-01-01T07:24:13;18.33;;;13.10;;
35298;SDS011;21415;48.054;16.646;2023-01-01T07:26:40;18.77;;;13.25;;
35298;SDS011;21415;48.054;16.646;2023-01-01T07:29:07;19.30;;;13.52;;
35298;SDS011;21415;48.054;16.646;2023-01-01T07:31:36;25.45;;;13.45;;
35298;SDS011;21415;48.054;16.646;2023-01-01T07:34:04;23.65;;;12.38;;
35298;SDS011;21415;48.054;16.646;2023-01-01T07:36:30;19.75;;;13.25;;
35298;SDS011;21415;48.054;16.646;2023-01-01T07:38:56;21.83;;;14.68;;
35298;SDS011;21415;48.054;16.646;2023-01-01T07:41:22;20.02;;;14.45;;
35298;SDS011;21415;48.054;16.646;2023-01-01T07:43:48;26.07;;;16.37;;
35298;SDS011;21415;48.054;16.646;2023-01-01T07:46:14;24.52;;;17.42;;
35298;SDS011;21415;48.054;16.646;2023-01-01T07:48:43;28.83;;;18.15;;
35298;SDS011;21415;48.054;16.646;2023-01-01T07:51:09;24.73;;;17.08;;
35298;SDS011;21415;48.054;16.646;2023-01-01T07:53:35;21.00;;;14.38;;
35298;SDS011;21415;48.054;16.646;2023-01-01T07:56:01;19.85;;;13.80;;
35298;SDS011;21415;48.054;16.646;2023-01-01T07:58:27;20.92;;;13.85;;
35298;SDS011;21415;48.054;16.646;2023-01-01T08:00:52;24.27;;;13.75;;
35298;SDS011;21415;48.054;16.646;2023-01-01T08:03:18;18.83;;;13.73;;
35298;SDS011;21415;48.054;16.646;2023-01-01T08:05:44;19.90;;;14.70;;
35298;SDS011;21415;48.054;16.646;2023-01-01T08:08:10;20.48;;;14.50;;
35298;SDS011;21415;48.054;16.646;2023-01-01T08:10:36;28.15;;;13.35;;
35298;SDS011;21415;48.054;16.646;2023-01-01T08:13:03;23.35;;;14.02;;
35298;SDS011;21415;48.054;16.646;2023-01-01T08:15:30;19.50;;;13.85;;
35298;SDS011;21415;48.054;16.646;2023-01-01T08:17:57;22.20;;;13.68;;
35298;SDS011;21415;48.054;16.646;2023-01-01T08:20:24;21.42;;;13.50;;
35298;SDS011;21415;48.054;16.646;2023-01-01T08:22:50;36.72;;;14.70;;
35298;SDS011;21415;48.054;16.646;2023-01-01T08:25:16;18.97;;;13.40;;
35298;SDS011;21415;48.054;16.646;2023-01-01T08:27:41;29.10;;;13.55;;
35298;SDS011;21415;48.054;16.646;2023-01-01T08:30:09;21.30;;;13.27;;
35298;SDS011;21415;48.054;16.646;2023-01-01T08:32:35;40.28;;;15.30;;
35298;SDS011;21415;48.054;16.646;2023-01-01T08:35:01;45.70;;;15.65;;
35298;SDS011;21415;48.054;16.646;2023-01-01T08:37:27;27.98;;;15.20;;
35298;SDS011;21415;48.054;16.646;2023-01-01T08:39:53;24.92;;;14.02;;
35298;SDS011;21415;48.054;16.646;2023-01-01T08:42:19;39.78;;;18.80;;
35298;SDS011;21415;48.054;16.646;2023-01-01T08:44:45;39.63;;;19.87;;
35298;SDS011;21415;48.054;16.646;2023-01-01T08:47:24;29.52;;;18.08;;
35298;SDS011;21415;48.054;16.646;2023-01-01T08:49:50;24.77;;;16.70;;
35298;SDS011;21415;48.054;16.646;2023-01-01T08:52:16;31.23;;;16.35;;
35298;SDS011;21415;48.054;16.646;2023-01-01T08:54:44;29.55;;;16.63;;
35298;SDS011;21415;48.054;16.646;2023-01-01T08:57:10;24.23;;;15.35;;
35298;SDS011;21415;48.054;16.646;2023-01-01T08:59:36;20.30;;;14.20;;
35298;SDS011;21415;48.054;16.646;2023-01-01T09:02:02;25.73;;;14.75;;
35298;SDS011;21415;48.054;16.646;2023-01-01T09:04:28;26.73;;;14.10;;
35298;SDS011;21415;48.054;16.646;2023-01-01T09:06:54;20.60;;;14.98;;
35298;SDS011;21415;48.054;16.646;2023-01-01T09:09:20;22.33;;;14.82;;
35298;SDS011;21415;48.054;16.646;2023-01-01T09:11:49;28.05;;;13.68;;
35298;SDS011;21415;48.054;16.646;2023-01-01T09:14:16;17.98;;;13.70;;
35298;SDS011;21415;48.054;16.646;2023-01-01T09:16:42;26.08;;;15.90;;
35298;SDS011;21415;48.054;16.646;2023-01-01T09:19:08;28.37;;;17.27;;
35298;SDS011;21415;48.054;16.646;2023-01-01T09:21:35;23.88;;;15.65;;
35298;SDS011;21415;48.054;16.646;2023-01-01T09:24:01;14.52;;;12.32;;
35298;SDS011;21415;48.054;16.646;2023-01-01T09:26:27;13.13;;;10.57;;
35298;SDS011;21415;48.054;16.646;2023-01-01T09:28:53;13.07;;;10.38;;
35298;SDS011;21415;48.054;16.646;2023-01-01T09:31:18;12.63;;;10.20;;
35298;SDS011;21415;48.054;16.646;2023-01-01T09:33:44;13.27;;;11.23;;
35298;SDS011;21415;48.054;16.646;2023-01-01T09:36:11;13.30;;;11.30;;
35298;SDS011;21415;48.054;16.646;2023-01-01T09:38:37;13.90;;;11.23;;
35298;SDS011;21415;48.054;16.646;2023-01-01T09:41:07;14.13;;;11.77;;
35298;SDS011;21415;48.054;16.646;2023-01-01T09:43:52;14.73;;;10.93;;
35298;SDS011;21415;48.054;16.646;2023-01-01T09:46:25;14.10;;;11.73;;
35298;SDS011;21415;48.054;16.646;2023-01-01T09:48:53;13.10;;;11.10;;
35298;SDS011;21415;48.054;16.646;2023-01-01T09:51:21;14.82;;;12.55;;
35298;SDS011;21415;48.054;16.646;2023-01-01T09:53:59;13.32;;;11.13;;
35298;SDS011;21415;48.054;16.646;2023-01-01T09:56:29;13.57;;;11.25;;
35298;SDS011;21415;48.054;16.646;2023-01-01T09:58:59;13.73;;;10.65;;
35298;SDS011;21415;48.054;16.646;2023-01-01T10:07:13;14.07;;;11.73;;
35298;SDS011;21415;48.054;16.646;2023-01-01T10:12:50;14.80;;;11.35;;
35298;SDS011;21415;48.054;16.646;2023-01-01T10:15:33;13.52;;;11.23;;
35298;SDS011;21415;48.054;16.646;2023-01-01T10:18:04;13.90;;;11.45;;
35298;SDS011;21415;48.054;16.646;2023-01-01T10:20:40;15.40;;;12.13;;
35298;SDS011;21415;48.054;16.646;2023-01-01T10:23:12;14.25;;;11.07;;
35298;SDS011;21415;48.054;16.646;2023-01-01T10:26:02;14.80;;;11.88;;
35298;SDS011;21415;48.054;16.646;2023-01-01T10:28:39;16.13;;;12.50;;
35298;SDS011;21415;48.054;16.646;2023-01-01T10:31:34;14.63;;;11.70;;
35298;SDS011;21415;48.054;16.646;2023-01-01T10:34:18;15.52;;;12.85;;
35298;SDS011;21415;48.054;16.646;2023-01-01T10:36:59;15.82;;;12.32;;
35298;SDS011;21415;48.054;16.646;2023-01-01T10:39:27;15.43;;;11.98;;
35298;SDS011;21415;48.054;16.646;2023-01-01T10:41:53;15.35;;;12.05;;
35298;SDS011;21415;48.054;16.646;2023-01-01T10:44:31;17.17;;;13.38;;
35298;SDS011;21415;48.054;16.646;2023-01-01T10:46:59;15.85;;;12.27;;
35298;SDS011;21415;48.054;16.646;2023-01-01T10:49:50;20.25;;;11.88;;
35298;SDS011;21415;48.054;16.646;2023-01-01T10:52:21;14.80;;;12.13;;
35298;SDS011;21415;48.054;16.646;2023-01-01T10:54:58;17.33;;;13.80;;
35298;SDS011;21415;48.054;16.646;2023-01-01T11:05:38;17.13;;;12.98;;
35298;SDS011;21415;48.054;16.646;2023-01-01T11:08:14;16.77;;;12.60;;
35298;SDS011;21415;48.054;16.646;2023-01-01T11:10:41;15.55;;;12.70;;
35298;SDS011;21415;48.054;16.646;2023-01-01T11:13:18;17.30;;;13.43;;
35298;SDS011;21415;48.054;16.646;2023-01-01T11:15:45;17.83;;;13.68;;
35298;SDS011;21415;48.054;16.646;2023-01-01T11:18:16;14.43;;;12.23;;
35298;SDS011;21415;48.054;16.646;2023-01-01T11:20:55;18.73;;;14.23;;
35298;SDS011;21415;48.054;16.646;2023-01-01T11:23:38;17.05;;;12.75;;
35298;SDS011;21415;48.054;16.646;2023-01-01T11:28:33;18.40;;;13.57;;
35298;SDS011;21415;48.054;16.646;2023-01-01T11:33:31;17.17;;;12.77;;
35298;SDS011;21415;48.054;16.646;2023-01-01T11:36:00;18.02;;;13.30;;
35298;SDS011;21415;48.054;16.646;2023-01-01T11:38:26;18.45;;;13.88;;
35298;SDS011;21415;48.054;16.646;2023-01-01T11:40:54;19.77;;;13.63;;
35298;SDS011;21415;48.054;16.646;2023-01-01T11:43:26;18.48;;;14.55;;
35298;SDS011;21415;48.054;16.646;2023-01-01T11:45:53;20.13;;;15.13;;
35298;SDS011;21415;48.054;16.646;2023-01-01T11:48:28;19.05;;;14.65;;
35298;SDS011;21415;48.054;16.646;2023-01-01T11:53:26;22.40;;;15.02;;
35298;SDS011;21415;48.054;16.646;2023-01-01T11:56:16;22.90;;;16.27;;
35298;SDS011;21415;48.054;16.646;2023-01-01T11:58:55;22.17;;;15.93;;
35298;SDS011;21415;48.054;16.646;2023-01-01T12:01:25;20.77;;;15.98;;
35298;SDS011;21415;48.054;16.646;2023-01-01T12:17:17;21.98;;;15.55;;
35298;SDS011;21415;48.054;16.646;2023-01-01T12:20:01;21.33;;;15.90;;
35298;SDS011;21415;48.054;16.646;2023-01-01T12:22:38;22.98;;;15.40;;
35298;SDS011;21415;48.054;16.646;2023-01-01T12:25:04;22.98;;;15.85;;
35298;SDS011;21415;48.054;16.646;2023-01-01T12:27:46;21.33;;;15.70;;
35298;SDS011;21415;48.054;16.646;2023-01-01T12:30:42;24.50;;;15.23;;
35298;SDS011;21415;48.054;16.646;2023-01-01T12:36:18;19.38;;;14.05;;
35298;SDS011;21415;48.054;16.646;2023-01-01T12:45:28;25.73;;;16.55;;
35298;SDS011;21415;48.054;16.646;2023-01-01T12:48:00;26.08;;;17.50;;
35298;SDS011;21415;48.054;16.646;2023-01-01T12:53:28;29.25;;;17.65;;
35298;SDS011;21415;48.054;16.646;2023-01-01T12:56:20;24.05;;;15.00;;
35298;SDS011;21415;48.054;16.646;2023-01-01T12:59:10;21.23;;;12.40;;
35298;SDS011;21415;48.054;16.646;2023-01-01T13:01:41;20.58;;;12.77;;
35298;SDS011;21415;48.054;16.646;2023-01-01T13:04:11;18.42;;;12.73;;
35298;SDS011;21415;48.054;16.646;2023-01-01T13:06:41;24.98;;;14.40;;
35298;SDS011;21415;48.054;16.646;2023-01-01T13:09:15;20.90;;;12.73;;
35298;SDS011;21415;48.054;16.646;2023-01-01T13:11:42;21.15;;;12.77;;
35298;SDS011;21415;48.054;16.646;2023-01-01T13:14:10;17.75;;;11.90;;
35298;SDS011;21415;48.054;16.646;2023-01-01T13:16:37;16.23;;;10.15;;
35298;SDS011;21415;48.054;16.646;2023-01-01T13:19:06;14.95;;;9.85;;
35298;SDS011;21415;48.054;16.646;2023-01-01T13:21:47;16.70;;;10.18;;
35298;SDS011;21415;48.054;16.646;2023-01-01T13:24:19;14.95;;;9.48;;
35298;SDS011;21415;48.054;16.646;2023-01-01T13:26:46;14.32;;;10.40;;
35298;SDS011;21415;48.054;16.646;2023-01-01T14:02:19;12.20;;;8.18;;
35298;SDS011;21415;48.054;16.646;2023-01-01T14:04:56;11.82;;;8.27;;
35298;SDS011;21415;48.054;16.646;2023-01-01T14:12:43;12.80;;;9.00;;
35298;SDS011;21415;48.054;16.646;2023-01-01T14:17:53;10.75;;;7.40;;
35298;SDS011;21415;48.054;16.646;2023-01-01T14:20:22;10.77;;;8.00;;
35298;SDS011;21415;48.054;16.646;2023-01-01T14:22:51;14.15;;;9.10;;
35298;SDS011;21415;48.054;16.646;2023-01-01T14:25:35;16.48;;;11.60;;
35298;SDS011;21415;48.054;16.646;2023-01-01T14:28:04;13.55;;;10.05;;
35298;SDS011;21415;48.054;16.646;2023-01-01T14:30:50;14.18;;;9.23;;
35298;SDS011;21415;48.054;16.646;2023-01-01T14:33:22;14.52;;;9.38;;
35298;SDS011;21415;48.054;16.646;2023-01-01T14:35:50;12.63;;;8.60;;
35298;SDS011;21415;48.054;16.646;2023-01-01T14:38:30;14.63;;;9.65;;
35298;SDS011;21415;48.054;16.646;2023-01-01T14:44:11;15.48;;;8.93;;
35298;SDS011;21415;48.054;16.646;2023-01-01T14:46:40;15.38;;;9.50;;
35298;SDS011;21415;48.054;16.646;2023-01-01T14:49:08;13.75;;;9.25;;
35298;SDS011;21415;48.054;16.646;2023-01-01T14:51:35;12.77;;;8.23;;
35298;SDS011;21415;48.054;16.646;2023-01-01T14:54:02;13.70;;;8.82;;
35298;SDS011;21415;48.054;16.646;2023-01-01T14:56:30;15.70;;;9.13;;
35298;SDS011;21415;48.054;16.646;2023-01-01T15:01:36;16.88;;;8.73;;
35298;SDS011;21415;48.054;16.646;2023-01-01T15:04:05;16.73;;;10.23;;
35298;SDS011;21415;48.054;16.646;2023-01-01T15:06:45;22.65;;;13.73;;
35298;SDS011;21415;48.054;16.646;2023-01-01T15:09:16;27.95;;;11.82;;
35298;SDS011;21415;48.054;16.646;2023-01-01T15:11:42;16.42;;;10.93;;
35298;SDS011;21415;48.054;16.646;2023-01-01T15:17:08;33.72;;;12.77;;
35298;SDS011;21415;48.054;16.646;2023-01-01T15:19:35;16.73;;;10.82;;
35298;SDS011;21415;48.054;16.646;2023-01-01T15:24:51;19.88;;;8.98;;
35298;SDS011;21415;48.054;16.646;2023-01-01T15:27:31;15.65;;;9.10;;
35298;SDS011;21415;48.054;16.646;2023-01-01T15:29:59;19.95;;;9.73;;
35298;SDS011;21415;48.054;16.646;2023-01-01T15:32:26;13.35;;;8.82;;
35298;SDS011;21415;48.054;16.646;2023-01-01T15:34:54;19.63;;;8.70;;
35298;SDS011;21415;48.054;16.646;2023-01-01T15:37:32;15.30;;;8.38;;
35298;SDS011;21415;48.054;16.646;2023-01-01T15:42:43;24.33;;;8.35;;
35298;SDS011;21415;48.054;16.646;2023-01-01T15:45:21;17.67;;;9.07;;
35298;SDS011;21415;48.054;16.646;2023-01-01T15:47:47;23.25;;;11.15;;
35298;SDS011;21415;48.054;16.646;2023-01-01T15:53:00;18.75;;;9.50;;
35298;SDS011;21415;48.054;16.646;2023-01-01T15:55:33;15.90;;;8.60;;
35298;SDS011;21415;48.054;16.646;2023-01-01T15:58:01;16.90;;;9.90;;
35298;SDS011;21415;48.054;16.646;2023-01-01T16:00:28;31.70;;;9.57;;
35298;SDS011;21415;48.054;16.646;2023-01-01T16:02:59;27.08;;;9.00;;
35298;SDS011;21415;48.054;16.646;2023-01-01T16:05:34;30.23;;;9.15;;
35298;SDS011;21415;48.054;16.646;2023-01-01T16:08:00;20.83;;;8.57;;
35298;SDS011;21415;48.054;16.646;2023-01-01T16:10:28;24.88;;;8.95;;
35298;SDS011;21415;48.054;16.646;2023-01-01T16:12:54;23.15;;;8.93;;
35298;SDS011;21415;48.054;16.646;2023-01-01T16:15:20;30.73;;;9.40;;
35298;SDS011;21415;48.054;16.646;2023-01-01T16:17:45;25.23;;;10.27;;
35298;SDS011;21415;48.054;16.646;2023-01-01T16:20:18;31.65;;;9.57;;
35298;SDS011;21415;48.054;16.646;2023-01-01T16:22:47;20.13;;;9.10;;
35298;SDS011;21415;48.054;16.646;2023-01-01T16:25:17;19.80;;;9.27;;
35298;SDS011;21415;48.054;16.646;2023-01-01T16:27:44;23.55;;;8.88;;
35298;SDS011;21415;48.054;16.646;2023-01-01T16:30:10;24.48;;;9.23;;
35298;SDS011;21415;48.054;16.646;2023-01-01T16:32:37;16.42;;;9.32;;
35298;SDS011;21415;48.054;16.646;2023-01-01T16:35:04;22.83;;;9.15;;
35298;SDS011;21415;48.054;16.646;2023-01-01T16:37:31;28.20;;;9.27;;
35298;SDS011;21415;48.054;16.646;2023-01-01T16:39:57;26.73;;;9.93;;
35298;SDS011;21415;48.054;16.646;2023-01-01T16:42:23;21.40;;;8.95;;
35298;SDS011;21415;48.054;16.646;2023-01-01T16:44:49;23.85;;;9.77;;
35298;SDS011;21415;48.054;16.646;2023-01-01T16:47:15;26.65;;;8.98;;
35298;SDS011;21415;48.054;16.646;2023-01-01T16:49:40;21.88;;;9.77;;
35298;SDS011;21415;48.054;16.646;2023-01-01T16:52:06;21.75;;;9.57;;
35298;SDS011;21415;48.054;16.646;2023-01-01T16:54:32;26.58;;;10.02;;
35298;SDS011;21415;48.054;16.646;2023-01-01T16:57:00;20.45;;;10.68;;
35298;SDS011;21415;48.054;16.646;2023-01-01T16:59:26;24.40;;;11.38;;
35298;SDS011;21415;48.054;16.646;2023-01-01T17:01:52;27.08;;;11.98;;